Time;durP1;ratioP1;P1;durP2;ratioP2;P2;SDS_P1;SDS_P2;PMS_P1;PMS_P2;Temp;Humidity;BMP_temperature;BMP_pressure;BME280_temperature;BME280_humidity;BME280_pressure;Samples;Min_cycle;Max_cycle;Signal;HPM_P1;HPM_P2
2021/10/14 00:00:45;;;;;;;7.80;3.70;;;8.00;99.90;;;;;;4168713;28;20880;-83
2021/10/14 00:02:47;;;;;;;8.73;3.87;;;8.00;99.90;;;;;;4157471;28;20485;-82
2021/10/14 00:04:49;;;;;;;10.23;3.73;;;8.00;99.90;;;;;;4155211;28;20842;-83
2021/10/14 00:06:52;;;;;;;6.97;3.53;;;8.00;99.90;;;;;;4171020;28;20584;-82
2021/10/14 00:08:54;;;;;;;7.73;3.70;;;8.00;99.90;;;;;;4173654;28;20483;-82
2021/10/14 00:10:56;;;;;;;7.67;3.57;;;7.70;99.90;;;;;;4161913;28;20504;-82
2021/10/14 00:12:58;;;;;;;8.20;3.80;;;7.90;99.90;;;;;;4172056;28;20519;-82
2021/10/14 00:15:00;;;;;;;6.27;3.97;;;7.90;99.90;;;;;;4171643;28;20871;-83
2021/10/14 00:17:02;;;;;;;5.97;3.80;;;7.90;99.90;;;;;;4171206;28;20515;-83
2021/10/14 00:19:05;;;;;;;10.03;4.03;;;8.00;99.90;;;;;;4157751;28;20481;-84
2021/10/14 00:21:06;;;;;;;6.17;3.97;;;8.00;99.90;;;;;;4166084;28;20483;-82
2021/10/14 00:23:09;;;;;;;8.30;4.00;;;7.90;99.90;;;;;;4175144;28;20465;-83
2021/10/14 00:25:11;;;;;;;8.93;4.17;;;8.00;99.90;;;;;;4174097;28;20486;-83
2021/10/14 00:27:13;;;;;;;10.67;3.97;;;8.00;99.90;;;;;;4167329;28;20474;-82
2021/10/14 00:29:15;;;;;;;10.13;3.87;;;7.90;99.90;;;;;;4152291;28;20465;-83
2021/10/14 00:31:16;;;;;;;6.03;4.03;;;7.90;99.90;;;;;;4151449;28;20478;-83
2021/10/14 00:33:18;;;;;;;9.70;4.30;;;7.90;99.90;;;;;;4152935;28;20484;-83
2021/10/14 00:35:20;;;;;;;8.47;4.17;;;8.00;99.90;;;;;;4151397;28;20457;-84
2021/10/14 00:37:22;;;;;;;11.33;4.57;;;7.90;99.90;;;;;;4152683;28;20543;-83
2021/10/14 00:39:25;;;;;;;10.50;4.20;;;7.90;99.90;;;;;;4162735;28;20496;-83
2021/10/14 00:41:26;;;;;;;8.57;4.73;;;7.90;99.90;;;;;;4160597;28;20836;-83
2021/10/14 00:43:28;;;;;;;9.00;4.40;;;7.90;99.90;;;;;;4149531;28;20446;-83
2021/10/14 00:45:30;;;;;;;7.30;4.40;;;7.90;99.90;;;;;;4153555;28;20985;-83
2021/10/14 00:47:32;;;;;;;8.67;4.50;;;7.90;99.90;;;;;;4150419;28;20532;-83
2021/10/14 00:49:34;;;;;;;8.30;3.83;;;7.90;99.90;;;;;;4149842;28;20462;-83
2021/10/14 00:51:35;;;;;;;9.10;4.80;;;8.00;99.90;;;;;;4153776;28;20487;-82
2021/10/14 00:53:38;;;;;;;7.87;4.77;;;7.90;99.90;;;;;;4151043;28;20791;-83
2021/10/14 00:55:42;;;;;;;9.27;4.10;;;7.90;99.90;;;;;;4151650;28;20869;-84
2021/10/14 00:57:43;;;;;;;9.03;4.47;;;8.00;99.90;;;;;;4167548;28;20507;-82
2021/10/14 00:59:46;;;;;;;8.80;4.50;;;8.10;99.90;;;;;;4169731;28;20460;-83
2021/10/14 01:01:48;;;;;;;8.57;4.73;;;8.00;99.90;;;;;;4170096;28;20493;-83
2021/10/14 01:03:50;;;;;;;8.30;4.60;;;8.00;99.90;;;;;;4171560;28;20485;-84
2021/10/14 01:05:51;;;;;;;11.00;5.03;;;8.00;99.90;;;;;;4170066;28;20477;-83
2021/10/14 01:07:53;;;;;;;9.50;4.90;;;8.00;99.90;;;;;;4166615;28;20480;-83
2021/10/14 01:09:55;;;;;;;8.97;5.17;;;8.00;99.90;;;;;;4168417;28;20459;-83
2021/10/14 01:12:00;;;;;;;9.20;4.93;;;8.00;99.90;;;;;;4167430;28;20495;-83
2021/10/14 01:14:02;;;;;;;13.00;5.40;;;8.10;99.90;;;;;;4150188;28;20849;-82
2021/10/14 01:16:05;;;;;;;14.27;5.33;;;8.10;99.90;;;;;;4147247;28;20741;-83
2021/10/14 01:18:06;;;;;;;10.10;4.83;;;8.10;99.90;;;;;;4153007;28;20507;-84
2021/10/14 01:20:11;;;;;;;11.33;5.33;;;8.00;99.90;;;;;;4164970;28;20457;-82
2021/10/14 01:22:13;;;;;;;8.17;5.20;;;8.10;99.90;;;;;;4163747;28;20492;-83
2021/10/14 01:24:14;;;;;;;11.83;5.50;;;8.10;99.90;;;;;;4163412;28;20471;-82
2021/10/14 01:26:16;;;;;;;12.27;5.57;;;8.10;99.90;;;;;;4163542;28;20893;-84
2021/10/14 01:28:18;;;;;;;10.93;5.37;;;8.10;99.90;;;;;;4160087;28;20505;-83
2021/10/14 01:30:20;;;;;;;10.80;5.50;;;8.10;99.90;;;;;;4163198;28;20469;-83
2021/10/14 01:32:21;;;;;;;9.60;5.60;;;8.10;99.90;;;;;;4161344;28;20554;-84
2021/10/14 01:34:23;;;;;;;11.80;5.33;;;8.10;99.90;;;;;;4167409;28;20522;-83
2021/10/14 01:36:26;;;;;;;9.67;5.53;;;8.20;99.90;;;;;;4166995;28;20457;-83
2021/10/14 01:38:28;;;;;;;11.97;5.57;;;8.20;99.90;;;;;;4165901;28;20549;-83
2021/10/14 01:40:30;;;;;;;10.60;6.13;;;8.20;99.90;;;;;;4157819;28;20477;-83
2021/10/14 01:42:32;;;;;;;10.47;5.73;;;8.30;99.90;;;;;;4152491;28;20498;-84
2021/10/14 01:44:34;;;;;;;9.77;6.07;;;8.20;99.90;;;;;;4149739;28;20449;-83
2021/10/14 01:46:36;;;;;;;13.27;5.63;;;8.20;99.90;;;;;;4149680;28;20464;-83
2021/10/14 01:48:38;;;;;;;10.60;5.63;;;8.20;99.90;;;;;;4151571;28;20495;-83
2021/10/14 01:50:41;;;;;;;9.27;5.67;;;8.20;99.90;;;;;;4175687;28;21004;-83
2021/10/14 01:52:45;;;;;;;10.23;5.87;;;8.20;99.90;;;;;;4162138;28;20480;-83
2021/10/14 01:54:46;;;;;;;11.67;6.50;;;8.20;99.90;;;;;;4166499;28;20464;-83
2021/10/14 01:56:48;;;;;;;9.20;5.53;;;8.20;99.90;;;;;;4169362;28;20456;-82
2021/10/14 01:58:53;;;;;;;10.97;6.00;;;8.20;99.90;;;;;;4167346;28;20456;-83
2021/10/14 02:00:54;;;;;;;10.00;6.33;;;8.20;99.90;;;;;;4163941;28;20460;-83
2021/10/14 02:02:56;;;;;;;9.57;5.97;;;8.20;99.90;;;;;;4150842;28;20457;-83
2021/10/14 02:04:58;;;;;;;15.10;6.93;;;8.30;99.90;;;;;;4165948;28;20476;-83
2021/10/14 02:06:59;;;;;;;13.00;6.67;;;8.30;99.90;;;;;;4151428;28;21039;-84
2021/10/14 02:09:07;;;;;;;15.27;7.33;;;8.30;99.90;;;;;;4170060;28;20475;-84
2021/10/14 02:11:08;;;;;;;16.33;7.27;;;8.40;99.90;;;;;;4174372;28;20515;-82
2021/10/14 02:13:10;;;;;;;13.77;6.97;;;8.30;99.90;;;;;;4165226;28;20546;-79
2021/10/14 02:15:12;;;;;;;10.67;6.50;;;8.30;99.90;;;;;;4165724;28;20507;-80
2021/10/14 02:17:13;;;;;;;15.10;7.53;;;8.30;99.90;;;;;;4163053;28;20496;-79
2021/10/14 02:19:15;;;;;;;12.57;7.07;;;8.30;99.90;;;;;;4165677;28;20449;-79
2021/10/14 02:21:18;;;;;;;14.30;8.20;;;8.30;99.90;;;;;;4164312;28;20880;-79
2021/10/14 02:23:20;;;;;;;13.60;7.20;;;8.30;99.90;;;;;;4156331;28;20500;-82
2021/10/14 02:25:23;;;;;;;13.13;6.83;;;8.30;99.90;;;;;;4155960;28;20470;-80
2021/10/14 02:27:25;;;;;;;14.67;8.07;;;8.30;99.90;;;;;;4160125;28;20477;-80
2021/10/14 02:29:26;;;;;;;13.03;6.70;;;8.30;99.90;;;;;;4165771;28;20461;-79
2021/10/14 02:31:28;;;;;;;14.43;7.50;;;8.40;99.90;;;;;;4164672;28;20481;-81
2021/10/14 02:33:30;;;;;;;12.37;7.50;;;8.40;99.90;;;;;;4165848;28;20695;-79
2021/10/14 02:35:31;;;;;;;12.93;7.43;;;8.30;99.90;;;;;;4167784;28;20515;-82
2021/10/14 02:37:34;;;;;;;13.43;6.70;;;8.30;99.90;;;;;;4174118;28;20903;-82
2021/10/14 02:39:36;;;;;;;13.90;7.17;;;8.40;99.90;;;;;;4172873;28;20485;-81
2021/10/14 02:41:39;;;;;;;13.53;6.70;;;8.40;99.90;;;;;;4164603;28;20542;-82
2021/10/14 02:43:41;;;;;;;13.40;7.50;;;8.40;99.90;;;;;;4168387;28;20486;-82
2021/10/14 02:45:43;;;;;;;15.20;8.37;;;8.40;99.90;;;;;;4163013;28;20465;-82
2021/10/14 02:47:44;;;;;;;14.20;7.00;;;8.40;99.90;;;;;;4162135;28;20989;-81
2021/10/14 02:49:46;;;;;;;13.20;6.80;;;8.40;99.90;;;;;;4152917;28;20481;-82
2021/10/14 02:51:48;;;;;;;14.33;7.13;;;8.40;99.90;;;;;;4162077;28;20473;-82
2021/10/14 02:53:49;;;;;;;14.30;6.87;;;8.40;99.90;;;;;;4152650;28;20462;-79
2021/10/14 02:55:51;;;;;;;17.20;7.03;;;8.40;99.90;;;;;;4152095;28;20465;-80
2021/10/14 02:57:54;;;;;;;10.47;6.40;;;8.40;99.90;;;;;;4162002;28;20538;-82
2021/10/14 02:59:56;;;;;;;13.73;7.40;;;8.40;99.90;;;;;;4163473;28;20464;-79
2021/10/14 03:01:58;;;;;;;15.73;8.20;;;8.40;99.90;;;;;;4162626;28;20470;-78
2021/10/14 03:03:59;;;;;;;16.77;8.77;;;8.60;99.90;;;;;;4157937;28;20446;-79
2021/10/14 03:06:01;;;;;;;13.80;7.40;;;8.40;99.90;;;;;;4158299;28;20959;-82
2021/10/14 03:08:03;;;;;;;12.70;7.23;;;8.40;99.90;;;;;;4161726;28;20929;-81
2021/10/14 03:10:06;;;;;;;15.67;7.77;;;8.40;99.90;;;;;;4167138;28;20465;-81
2021/10/14 03:12:07;;;;;;;16.60;8.67;;;8.40;99.90;;;;;;4166596;28;20482;-81
2021/10/14 03:14:10;;;;;;;18.27;8.60;;;8.40;99.90;;;;;;4168131;28;21009;-81
2021/10/14 03:16:12;;;;;;;15.20;8.77;;;8.40;99.90;;;;;;4165690;28;20465;-81
2021/10/14 03:18:14;;;;;;;14.83;8.20;;;8.40;99.90;;;;;;4174260;28;21071;-81
2021/10/14 03:20:16;;;;;;;16.30;8.13;;;8.40;99.90;;;;;;4169693;28;20971;-82
2021/10/14 03:22:17;;;;;;;13.50;8.63;;;8.70;99.90;;;;;;4172728;28;20480;-81
2021/10/14 03:24:19;;;;;;;15.13;8.20;;;8.40;99.90;;;;;;4166821;28;20488;-84
2021/10/14 03:26:21;;;;;;;13.63;8.27;;;8.40;99.90;;;;;;4164957;28;20997;-84
2021/10/14 03:28:23;;;;;;;17.87;8.53;;;8.40;99.90;;;;;;4168729;28;20481;-84
2021/10/14 03:30:26;;;;;;;14.90;7.47;;;8.40;99.90;;;;;;4165393;28;20472;-84
2021/10/14 03:32:28;;;;;;;17.03;7.77;;;8.40;99.90;;;;;;4166840;28;20480;-84
2021/10/14 03:34:30;;;;;;;15.83;7.93;;;8.40;99.90;;;;;;4168169;28;20441;-83
2021/10/14 03:36:32;;;;;;;11.50;7.60;;;8.40;99.90;;;;;;4166293;28;20531;-83
2021/10/14 03:38:33;;;;;;;14.67;8.17;;;8.40;99.90;;;;;;4166295;28;20486;-84
2021/10/14 03:40:35;;;;;;;14.53;8.10;;;8.40;99.90;;;;;;4169370;28;20465;-83
2021/10/14 03:42:37;;;;;;;16.77;7.80;;;8.40;99.90;;;;;;4165888;28;20474;-83
2021/10/14 03:44:38;;;;;;;14.07;7.93;;;8.40;99.90;;;;;;4166935;28;20466;-83
2021/10/14 03:46:42;;;;;;;16.07;7.90;;;8.40;99.90;;;;;;4169619;28;20477;-84
2021/10/14 03:48:44;;;;;;;15.23;7.30;;;8.40;99.90;;;;;;4172133;28;20518;-83
2021/10/14 03:50:47;;;;;;;14.07;8.13;;;8.40;99.90;;;;;;4161379;28;20462;-84
2021/10/14 03:52:48;;;;;;;14.97;7.77;;;8.40;99.90;;;;;;4165465;22;21054;-79
2021/10/14 03:54:50;;;;;;;12.30;7.63;;;8.40;99.90;;;;;;4139765;28;20458;-77
2021/10/14 03:56:52;;;;;;;15.87;7.60;;;8.40;99.90;;;;;;4153694;28;20474;-76
2021/10/14 03:58:54;;;;;;;13.00;7.07;;;8.40;99.90;;;;;;4149240;28;20490;-76
2021/10/14 04:00:55;;;;;;;13.57;7.57;;;8.40;99.90;;;;;;4150808;28;20821;-86
2021/10/14 04:02:59;;;;;;;13.47;7.63;;;8.40;99.90;;;;;;4149623;28;21196;-79
2021/10/14 04:05:01;;;;;;;11.43;6.97;;;8.40;99.90;;;;;;4151451;28;20477;-81
2021/10/14 04:07:03;;;;;;;14.67;7.73;;;8.40;99.90;;;;;;4149877;28;20471;-79
2021/10/14 04:09:05;;;;;;;13.30;7.47;;;8.50;99.90;;;;;;4149993;28;20543;-78
2021/10/14 04:11:06;;;;;;;12.67;7.03;;;8.50;99.90;;;;;;4149721;28;20556;-78
2021/10/14 04:13:08;;;;;;;13.20;7.43;;;8.50;99.90;;;;;;4150110;28;20456;-78
2021/10/14 04:15:10;;;;;;;15.10;7.40;;;8.50;99.90;;;;;;4145803;28;20565;-78
2021/10/14 04:17:12;;;;;;;12.13;7.13;;;8.50;99.90;;;;;;4146782;28;20481;-78
2021/10/14 04:19:15;;;;;;;12.77;7.23;;;8.50;99.90;;;;;;4144004;28;20497;-78
2021/10/14 04:21:16;;;;;;;12.10;7.47;;;8.50;99.90;;;;;;4145004;28;20457;-78
2021/10/14 04:23:20;;;;;;;12.60;7.57;;;8.50;99.90;;;;;;4147071;28;20449;-78
2021/10/14 04:25:22;;;;;;;11.80;7.27;;;8.50;99.90;;;;;;4146815;28;20457;-78
2021/10/14 04:27:23;;;;;;;13.47;7.47;;;8.50;99.90;;;;;;4144566;28;21037;-78
2021/10/14 04:29:25;;;;;;;18.97;8.70;;;8.50;99.90;;;;;;4149572;28;20543;-78
2021/10/14 04:31:28;;;;;;;16.27;8.87;;;8.50;99.90;;;;;;4144230;28;20715;-79
2021/10/14 04:33:30;;;;;;;15.20;8.47;;;8.50;99.90;;;;;;4148971;28;20496;-80
2021/10/14 04:35:33;;;;;;;13.03;7.73;;;8.50;99.90;;;;;;4149289;28;20605;-79
2021/10/14 04:37:35;;;;;;;13.60;7.70;;;8.50;99.90;;;;;;4151193;28;20465;-80
2021/10/14 04:39:38;;;;;;;13.10;8.33;;;8.50;99.90;;;;;;4150369;28;20547;-79
2021/10/14 04:41:41;;;;;;;16.70;9.47;;;8.50;99.90;;;;;;4153779;28;20858;-80
2021/10/14 04:43:43;;;;;;;17.40;8.87;;;8.60;99.90;;;;;;4145381;28;20470;-77
2021/10/14 04:45:45;;;;;;;17.50;9.20;;;8.60;99.90;;;;;;4142489;28;20624;-78
2021/10/14 04:47:46;;;;;;;16.47;9.50;;;8.60;99.90;;;;;;4143271;28;20472;-76
2021/10/14 04:49:48;;;;;;;19.33;9.87;;;8.60;99.90;;;;;;4143092;28;20453;-78
2021/10/14 04:51:51;;;;;;;15.63;8.83;;;8.60;99.90;;;;;;4145980;28;20477;-79
2021/10/14 04:53:53;;;;;;;16.97;9.07;;;8.60;99.90;;;;;;4150147;28;20466;-78
2021/10/14 04:55:55;;;;;;;16.37;9.47;;;8.60;99.90;;;;;;4145729;28;20454;-75
2021/10/14 04:57:57;;;;;;;16.67;9.93;;;8.60;99.90;;;;;;4154883;28;20466;-77
2021/10/14 04:59:58;;;;;;;18.10;9.73;;;8.60;99.90;;;;;;4146458;28;20521;-78
2021/10/14 05:02:00;;;;;;;18.17;10.53;;;8.60;99.90;;;;;;4150203;28;20568;-75
2021/10/14 05:04:01;;;;;;;20.33;10.23;;;8.60;99.90;;;;;;4149953;28;20483;-76
2021/10/14 05:06:03;;;;;;;20.33;10.60;;;8.60;99.90;;;;;;4143790;28;20861;-76
2021/10/14 05:08:07;;;;;;;18.67;10.70;;;8.60;99.90;;;;;;4145970;28;20826;-77
2021/10/14 05:10:09;;;;;;;20.20;10.37;;;8.60;99.90;;;;;;4146926;28;20477;-77
2021/10/14 05:12:10;;;;;;;20.27;9.90;;;8.60;99.90;;;;;;4148864;28;20532;-77
2021/10/14 05:14:12;;;;;;;21.27;10.63;;;8.60;99.90;;;;;;4153543;28;20520;-75
2021/10/14 05:16:14;;;;;;;18.77;11.03;;;8.60;99.90;;;;;;4148148;28;20829;-76
2021/10/14 05:18:16;;;;;;;18.73;10.50;;;8.60;99.90;;;;;;4147094;28;20470;-75
2021/10/14 05:20:17;;;;;;;20.67;10.90;;;8.60;99.90;;;;;;4149447;28;20461;-77
2021/10/14 05:22:19;;;;;;;19.83;10.87;;;8.60;99.90;;;;;;4143193;28;20556;-78
2021/10/14 05:24:22;;;;;;;19.37;10.90;;;8.60;99.90;;;;;;4149444;28;20772;-76
2021/10/14 05:26:23;;;;;;;20.77;11.40;;;8.60;99.90;;;;;;4146982;28;20465;-77
2021/10/14 05:28:25;;;;;;;16.17;9.37;;;8.60;99.90;;;;;;4150116;28;20458;-77
2021/10/14 05:30:27;;;;;;;21.07;11.03;;;8.60;99.90;;;;;;4146189;28;20536;-78
2021/10/14 05:32:29;;;;;;;18.03;10.20;;;8.60;99.90;;;;;;4149571;28;20632;-77
2021/10/14 05:34:31;;;;;;;20.17;10.70;;;8.60;99.90;;;;;;4149876;28;20459;-76
2021/10/14 05:36:32;;;;;;;18.80;11.03;;;8.60;99.90;;;;;;4153781;28;20466;-77
2021/10/14 05:38:34;;;;;;;22.70;10.80;;;8.60;99.90;;;;;;4149234;28;20489;-76
2021/10/14 05:40:37;;;;;;;22.57;11.50;;;8.60;99.90;;;;;;4145929;28;20474;-76
2021/10/14 05:42:39;;;;;;;17.77;10.13;;;8.60;99.90;;;;;;4144007;28;20501;-76
2021/10/14 05:44:40;;;;;;;19.43;10.53;;;8.60;99.90;;;;;;4148908;28;20733;-77
2021/10/14 05:46:42;;;;;;;21.13;11.10;;;8.60;99.90;;;;;;4149059;28;20462;-77
2021/10/14 05:48:44;;;;;;;18.73;9.93;;;8.60;99.90;;;;;;4150099;28;20451;-77
2021/10/14 05:50:45;;;;;;;18.73;10.17;;;8.60;99.90;;;;;;4134648;28;20870;-77
2021/10/14 05:52:47;;;;;;;20.90;11.27;;;8.60;99.90;;;;;;4138699;28;20514;-80
2021/10/14 05:54:49;;;;;;;18.93;9.97;;;8.60;99.90;;;;;;4144881;28;20455;-76
2021/10/14 05:56:52;;;;;;;19.07;10.23;;;8.60;99.90;;;;;;4143494;28;20529;-78
2021/10/14 05:58:54;;;;;;;18.33;10.77;;;8.60;99.90;;;;;;4143335;28;20501;-77
2021/10/14 06:00:56;;;;;;;19.97;10.17;;;8.60;99.90;;;;;;4151776;28;20485;-77
2021/10/14 06:02:58;;;;;;;18.23;10.50;;;8.60;99.90;;;;;;4145259;28;20482;-76
2021/10/14 06:04:59;;;;;;;18.10;10.43;;;8.60;99.90;;;;;;4142872;28;21026;-76
2021/10/14 06:07:01;;;;;;;17.83;10.47;;;8.60;99.90;;;;;;4145624;28;20483;-77
2021/10/14 06:09:03;;;;;;;18.87;10.90;;;8.60;99.90;;;;;;4142026;28;20581;-78
2021/10/14 06:11:04;;;;;;;20.67;11.07;;;8.60;99.90;;;;;;4136038;28;20505;-77
2021/10/14 06:13:07;;;;;;;20.63;11.07;;;8.60;99.90;;;;;;4158430;28;20962;-78
2021/10/14 06:15:10;;;;;;;21.13;11.40;;;8.60;99.90;;;;;;4156243;28;20492;-77
2021/10/14 06:17:11;;;;;;;20.90;11.73;;;8.60;99.90;;;;;;4144383;28;20884;-76
2021/10/14 06:19:13;;;;;;;20.30;11.97;;;8.70;99.90;;;;;;4142573;28;20497;-77
2021/10/14 06:21:15;;;;;;;20.30;11.47;;;8.70;99.90;;;;;;4145067;28;21042;-77
2021/10/14 06:23:16;;;;;;;23.63;12.50;;;8.70;99.90;;;;;;4144104;28;20987;-77
2021/10/14 06:25:18;;;;;;;19.83;11.10;;;8.70;99.90;;;;;;4145331;28;20886;-76
2021/10/14 06:27:20;;;;;;;24.03;11.87;;;8.70;99.90;;;;;;4145618;28;20998;-78
2021/10/14 06:29:23;;;;;;;22.10;12.33;;;8.70;99.90;;;;;;4153859;28;20523;-77
2021/10/14 06:31:25;;;;;;;21.50;12.03;;;8.70;99.90;;;;;;4160787;28;20550;-76
2021/10/14 06:33:26;;;;;;;22.20;12.40;;;8.70;99.90;;;;;;4143220;28;20466;-77
2021/10/14 06:35:28;;;;;;;20.93;11.80;;;8.70;99.90;;;;;;4132007;28;20470;-78
2021/10/14 06:37:30;;;;;;;21.23;12.17;;;8.70;99.90;;;;;;4144833;28;20459;-76
2021/10/14 06:39:31;;;;;;;21.53;12.00;;;8.70;99.90;;;;;;4145045;28;20497;-76
2021/10/14 06:41:33;;;;;;;22.53;12.27;;;8.70;99.90;;;;;;4140343;28;20510;-78
2021/10/14 06:43:35;;;;;;;22.77;13.53;;;8.70;99.90;;;;;;4145282;28;20473;-76
2021/10/14 06:45:38;;;;;;;23.37;13.07;;;8.80;99.90;;;;;;4143714;28;20536;-77
2021/10/14 06:47:39;;;;;;;27.27;13.17;;;8.80;99.90;;;;;;4143139;28;20482;-77
2021/10/14 06:49:41;;;;;;;24.33;13.37;;;8.80;99.90;;;;;;4147730;28;20479;-76
2021/10/14 06:51:43;;;;;;;23.60;14.20;;;8.80;99.90;;;;;;4149726;28;20528;-75
2021/10/14 06:53:44;;;;;;;27.50;14.40;;;8.80;99.90;;;;;;4144467;28;20497;-77
2021/10/14 06:55:46;;;;;;;29.13;16.13;;;8.80;99.90;;;;;;4143086;28;20466;-77
2021/10/14 06:57:48;;;;;;;27.03;15.00;;;8.80;99.90;;;;;;4153330;28;20470;-77
2021/10/14 06:59:50;;;;;;;26.60;15.20;;;8.80;99.90;;;;;;4144117;28;20565;-76
2021/10/14 07:01:53;;;;;;;23.73;14.33;;;8.80;99.90;;;;;;4144093;28;20483;-78
2021/10/14 07:03:54;;;;;;;27.10;15.27;;;8.80;99.90;;;;;;4149213;28;20482;-76
2021/10/14 07:05:56;;;;;;;25.57;14.90;;;8.80;99.90;;;;;;4140986;28;20478;-76
2021/10/14 07:07:58;;;;;;;25.40;14.53;;;8.80;99.90;;;;;;4143949;28;20820;-77
2021/10/14 07:10:00;;;;;;;29.00;15.97;;;8.90;99.90;;;;;;4146495;28;20462;-76
2021/10/14 07:12:08;;;;;;;26.67;14.90;;;8.90;99.90;;;;;;4144310;28;20490;-77
2021/10/14 07:14:11;;;;;;;30.47;15.83;;;8.90;99.90;;;;;;4143429;28;20458;-76
2021/10/14 07:16:13;;;;;;;25.90;14.80;;;8.90;99.90;;;;;;4139909;28;20518;-76
2021/10/14 07:18:16;;;;;;;29.07;16.10;;;8.90;99.90;;;;;;4147174;28;21041;-76
2021/10/14 07:20:18;;;;;;;27.27;15.60;;;8.90;99.90;;;;;;4143925;28;20588;-76
2021/10/14 07:22:19;;;;;;;26.17;14.30;;;8.90;99.90;;;;;;4143424;28;20494;-77
2021/10/14 07:24:21;;;;;;;26.97;15.43;;;8.90;99.90;;;;;;4134182;28;20482;-78
2021/10/14 07:26:23;;;;;;;28.70;16.10;;;9.00;99.90;;;;;;4138620;28;20474;-78
2021/10/14 07:28:24;;;;;;;27.83;16.03;;;9.00;99.90;;;;;;4144176;28;20668;-76
2021/10/14 07:30:26;;;;;;;27.60;15.53;;;9.00;99.90;;;;;;4144133;28;20536;-77
2021/10/14 07:32:28;;;;;;;33.13;17.53;;;9.00;99.90;;;;;;4146391;28;20555;-77
2021/10/14 07:34:31;;;;;;;25.60;15.47;;;9.00;99.90;;;;;;4137789;28;20876;-76
2021/10/14 07:36:32;;;;;;;31.93;16.07;;;9.10;99.90;;;;;;4143570;28;21011;-76
2021/10/14 07:38:34;;;;;;;28.63;16.47;;;9.10;99.90;;;;;;4143772;28;20528;-78
2021/10/14 07:40:39;;;;;;;28.73;16.90;;;9.10;99.90;;;;;;4143459;28;20482;-78
2021/10/14 07:42:40;;;;;;;27.47;15.50;;;9.10;99.90;;;;;;4137966;28;20498;-76
2021/10/14 07:44:42;;;;;;;27.33;15.23;;;9.20;99.90;;;;;;4144251;28;20505;-76
2021/10/14 07:46:44;;;;;;;27.83;16.20;;;9.20;99.90;;;;;;4143737;28;20513;-78
2021/10/14 07:48:46;;;;;;;27.53;15.83;;;9.20;99.90;;;;;;4143437;28;20459;-79
2021/10/14 07:50:49;;;;;;;27.30;16.23;;;9.20;99.90;;;;;;4149368;28;20853;-76
2021/10/14 07:52:51;;;;;;;26.43;16.03;;;9.30;99.90;;;;;;4140280;28;20506;-76
2021/10/14 07:54:53;;;;;;;24.83;15.83;;;9.30;99.90;;;;;;4144066;28;20513;-79
2021/10/14 07:56:54;;;;;;;26.47;15.83;;;9.30;99.90;;;;;;4143543;28;20474;-78
2021/10/14 07:58:56;;;;;;;25.50;15.57;;;9.30;99.90;;;;;;4143894;28;20546;-78
2021/10/14 08:00:58;;;;;;;28.30;16.73;;;9.30;99.90;;;;;;4134860;28;20864;-78
2021/10/14 08:02:59;;;;;;;28.27;16.97;;;9.30;99.90;;;;;;4146909;28;20498;-77
2021/10/14 08:05:01;;;;;;;22.73;14.43;;;9.30;99.90;;;;;;4147583;28;20467;-78
2021/10/14 08:07:04;;;;;;;27.30;16.43;;;9.30;99.90;;;;;;4147936;28;20455;-76
2021/10/14 08:09:06;;;;;;;27.43;15.73;;;9.40;99.90;;;;;;4147568;28;20466;-78
2021/10/14 08:11:08;;;;;;;27.43;15.27;;;9.40;99.90;;;;;;4153107;28;20469;-77
2021/10/14 08:13:13;;;;;;;27.10;15.90;;;9.40;99.90;;;;;;4152218;28;20465;-78
2021/10/14 08:15:15;;;;;;;26.17;15.83;;;9.40;99.90;;;;;;4135962;28;20459;-79
2021/10/14 08:17:17;;;;;;;24.90;16.17;;;9.50;99.90;;;;;;4146400;28;20990;-77
2021/10/14 08:19:18;;;;;;;25.07;16.37;;;9.40;99.90;;;;;;4142406;28;20823;-78
2021/10/14 08:21:20;;;;;;;25.07;15.77;;;9.50;99.90;;;;;;4138001;28;20537;-77
2021/10/14 08:23:24;;;;;;;24.93;15.67;;;9.50;99.90;;;;;;4143693;28;20470;-78
2021/10/14 08:25:26;;;;;;;24.70;15.13;;;9.50;99.90;;;;;;4145759;28;20920;-79
2021/10/14 08:27:28;;;;;;;29.97;17.37;;;9.50;99.90;;;;;;4143009;28;20846;-79
2021/10/14 08:29:29;;;;;;;29.43;16.63;;;9.50;99.90;;;;;;4136693;28;20474;-78
2021/10/14 08:31:31;;;;;;;23.87;14.83;;;9.50;99.90;;;;;;4143788;28;20529;-78
2021/10/14 08:33:33;;;;;;;22.73;15.10;;;9.50;99.90;;;;;;4142334;28;20216;-78
2021/10/14 08:35:36;;;;;;;24.77;14.83;;;9.50;99.90;;;;;;4143054;28;20557;-79
2021/10/14 08:37:38;;;;;;;24.57;15.13;;;9.60;99.90;;;;;;4141389;28;20211;-78
2021/10/14 08:39:41;;;;;;;24.90;14.77;;;9.60;99.90;;;;;;4142786;28;20520;-77
2021/10/14 08:41:44;;;;;;;25.37;15.70;;;9.60;99.90;;;;;;4140518;28;21400;-78
2021/10/14 08:43:47;;;;;;;24.50;14.40;;;9.60;99.90;;;;;;4143404;28;20469;-77
2021/10/14 08:45:50;;;;;;;23.50;15.20;;;9.60;99.90;;;;;;4146225;28;20735;-77
2021/10/14 08:47:52;;;;;;;21.83;13.43;;;9.70;99.90;;;;;;4146583;28;20549;-78
2021/10/14 08:49:55;;;;;;;26.77;14.37;;;9.70;99.90;;;;;;4141797;28;20474;-77
2021/10/14 08:51:57;;;;;;;23.50;14.60;;;9.70;99.90;;;;;;4144605;28;20502;-78
2021/10/14 08:53:59;;;;;;;21.33;14.47;;;9.70;99.90;;;;;;4146796;28;20455;-78
2021/10/14 08:56:02;;;;;;;24.50;15.13;;;9.70;99.90;;;;;;4147031;28;20481;-77
2021/10/14 08:58:06;;;;;;;25.50;14.87;;;9.70;99.90;;;;;;4158348;28;20223;-78
2021/10/14 09:00:09;;;;;;;24.53;15.63;;;9.80;99.90;;;;;;4132981;28;20232;-77
2021/10/14 09:02:16;;;;;;;21.97;13.90;;;9.80;99.90;;;;;;4145518;28;20708;-77
2021/10/14 09:04:20;;;;;;;22.53;13.90;;;9.80;99.90;;;;;;4148995;28;20458;-77
2021/10/14 09:06:22;;;;;;;23.10;14.17;;;9.80;99.90;;;;;;4153154;28;20950;-78
2021/10/14 09:08:37;;;;;;;25.40;15.53;;;9.80;99.90;;;;;;4150951;28;20517;-77
2021/10/14 09:10:39;;;;;;;25.50;15.37;;;9.90;99.90;;;;;;4150697;28;20216;-78
2021/10/14 09:12:46;;;;;;;27.03;15.53;;;9.90;99.90;;;;;;4149801;28;20547;-78
2021/10/14 09:14:56;;;;;;;23.93;14.70;;;9.90;99.90;;;;;;4151725;28;20257;-79
2021/10/14 09:16:58;;;;;;;23.13;14.80;;;10.00;99.90;;;;;;4148819;28;20222;-78
2021/10/14 09:19:17;;;;;;;24.10;15.27;;;10.00;99.90;;;;;;4153003;28;20708;-77
2021/10/14 09:21:22;;;;;;;21.83;13.90;;;10.00;99.90;;;;;;4149617;28;20231;-78
2021/10/14 09:23:27;;;;;;;22.03;14.90;;;10.10;99.90;;;;;;4153356;28;20215;-78
2021/10/14 09:25:31;;;;;;;24.63;14.63;;;10.10;99.90;;;;;;4154509;28;20266;-78
2021/10/14 09:27:44;;;;;;;22.63;14.07;;;10.10;99.90;;;;;;4154170;28;20462;-78
2021/10/14 09:29:46;;;;;;;24.03;14.13;;;10.10;99.90;;;;;;4153262;28;20243;-78
2021/10/14 09:31:53;;;;;;;21.40;13.77;;;10.10;99.90;;;;;;4149374;28;20239;-77
2021/10/14 09:33:55;;;;;;;18.47;12.40;;;10.20;99.90;;;;;;4150696;28;20474;-77
2021/10/14 09:35:57;;;;;;;20.60;13.13;;;10.20;99.90;;;;;;4154339;28;20265;-78
2021/10/14 09:37:59;;;;;;;22.30;12.97;;;10.20;99.90;;;;;;4146003;28;20571;-78
2021/10/14 09:40:03;;;;;;;17.30;11.80;;;10.30;99.90;;;;;;4154377;28;20277;-77
2021/10/14 09:42:04;;;;;;;22.23;13.13;;;10.40;99.90;;;;;;4148791;28;20285;-77
2021/10/14 09:44:13;;;;;;;16.33;11.30;;;10.40;99.90;;;;;;4159601;28;20219;-77
2021/10/14 09:46:34;;;;;;;17.57;11.47;;;10.50;99.90;;;;;;4152279;28;20699;-78
2021/10/14 09:48:40;;;;;;;15.03;10.77;;;10.50;99.90;;;;;;4144849;28;20225;-78
2021/10/14 09:50:44;;;;;;;16.50;10.47;;;10.60;99.90;;;;;;4143404;28;20209;-77
2021/10/14 09:52:46;;;;;;;14.23;10.27;;;10.60;99.90;;;;;;4164008;22;20245;-85
2021/10/14 09:54:47;;;;;;;13.43;10.43;;;10.70;99.90;;;;;;4152621;28;20221;-85
2021/10/14 09:56:49;;;;;;;15.30;11.17;;;10.70;99.90;;;;;;4147044;28;20221;-85
2021/10/14 09:58:53;;;;;;;14.23;10.07;;;10.70;99.90;;;;;;4133161;28;20213;-84
2021/10/14 10:00:57;;;;;;;13.83;10.43;;;10.80;99.90;;;;;;4141828;28;20233;-85
2021/10/14 10:03:01;;;;;;;14.97;10.50;;;10.80;99.90;;;;;;4145485;28;20247;-85
2021/10/14 10:05:02;;;;;;;12.47;9.50;;;10.80;99.90;;;;;;4145603;28;20667;-85
2021/10/14 10:07:05;;;;;;;12.83;9.50;;;10.90;99.90;;;;;;4137931;28;20220;-85
2021/10/14 10:09:14;;;;;;;13.80;9.93;;;11.10;99.90;;;;;;4145733;28;20240;-84
2021/10/14 10:11:18;;;;;;;13.83;9.53;;;11.00;99.90;;;;;;4144241;28;20220;-85
2021/10/14 10:13:21;;;;;;;10.83;8.77;;;11.40;99.90;;;;;;4152602;28;20237;-84
2021/10/14 10:15:37;;;;;;;13.60;9.50;;;11.10;99.90;;;;;;4148425;28;20209;-84
2021/10/14 10:17:43;;;;;;;12.67;9.37;;;11.10;99.90;;;;;;4145857;28;20259;-82
2021/10/14 10:19:49;;;;;;;14.03;9.53;;;11.30;99.90;;;;;;4146976;28;20202;-82
2021/10/14 10:21:51;;;;;;;13.00;9.33;;;11.20;99.90;;;;;;4144834;28;20233;-82
2021/10/14 10:23:56;;;;;;;12.73;9.07;;;11.30;99.90;;;;;;4130272;28;20227;-83
2021/10/14 10:25:57;;;;;;;11.70;9.00;;;11.30;99.90;;;;;;4150209;28;20209;-83
2021/10/14 10:33:11;;;;;;;10.53;8.43;;;11.50;99.90;;;;;;4129651;28;20258;-84
2021/10/14 10:35:38;;;;;;;11.00;8.77;;;11.60;99.90;;;;;;4137920;28;20228;-83
2021/10/14 10:37:44;;;;;;;10.07;8.37;;;11.60;99.90;;;;;;4155755;28;20213;-84
2021/10/14 10:39:48;;;;;;;10.10;7.83;;;11.60;99.90;;;;;;4141427;28;20218;-84